Portada
METAR-TAF:

METAR-TAF

Aeropuertos :

Taskent, Uzbekistán

Aeropuerto Internacional de Taskent

latitud: 41-16N, longitud: 069-16E, altitud: 489 m

Observación

El informe se hizo hace 17 minutos, a las 20:30 UTC
Viento 6 kt del este-noreste
Temperatura 27°C
Humedad 39%
Presión 1002 hPa
Visibilidad: 4000 m
humo

METAR: UTTT 242030Z 06006KT 4000 FU NSC 27/12 Q1002 R08R/CLRD70 NOSIG

Hora: 01:47 (20:47 UTC)

Pronóstico

El informe se hizo hace 3 horas y 47 minutos, a las 17:00 UTC
Pronóstico válido del 24 a las 18 UTC al 25 a las 18 UTC
Viento 10 kt del este
Visibilidad: 7000 m

TAF: UTTT 241700Z 2418/2518 08010KT 7000 NSC TX40/2511Z

Observaciones y pronósticos meteorológicos de más de 4000 aeropuertos (mensajes METAR y TAF).

Los puntos amarillos y rojos representan las estaciones disponibles.

Ponga el ratón en el punto deseado para ver el nombre de la estación.

Haga clic para ver las observaciones y los pronósticos meteorológicos.

Para cambiar el mapa : haga clic en los botones verdes con una cruz de color negro para hacer un zoom, en el botón verde con un guión para alejar o en las flechas verdes para mapas adyacentes.


METAR-TAF: